Aviation Digital Data Service (ADDS)

Output produced by METARs form (0020 UTC 17 July 2019)
found at http://www.aviationweather.gov/metar/data/
 
METAR text: BIKF 170000Z 21005KT 7000 -RA FEW002 SCT007 BKN020 12/12 Q1002
Conditions at: BIKF (KEFLAVIK (CIV/MI, IS) observed 0000 UTC 17 July 2019
Temperature: 12.0°C (54°F)
Dewpoint: 12.0°C (54°F) [RH = 100%]
Pressure (altimeter): 29.59 inches Hg (1002.0 mb)
Winds: from the SSW (210 degrees) at 6 MPH (5 knots; 2.6 m/s)
Visibility: 4 miles ( 7 km)
Ceiling: 2000 feet AGL
Clouds: few clouds at 200 feet AGL
scattered clouds at 700 feet AGL
broken clouds at 2000 feet AGL
Weather: -RA  (light rain)

METAR text: BIKF 162330Z 19005KT 3000 RA BR FEW003 BKN008 OVC018 12/12 Q1002
Conditions at: BIKF (KEFLAVIK (CIV/MI, IS) observed 2330 UTC 16 July 2019
Temperature: 12.0°C (54°F)
Dewpoint: 12.0°C (54°F) [RH = 100%]
Pressure (altimeter): 29.59 inches Hg (1002.0 mb)
Winds: from the S (190 degrees) at 6 MPH (5 knots; 2.6 m/s)
Visibility: 1.86 miles (2.99 km)
Ceiling: 800 feet AGL
Clouds: few clouds at 300 feet AGL
broken clouds at 800 feet AGL
overcast cloud deck at 1800 feet AGL
Weather: RA BR  (moderate rain, mist)

METAR text: BIKF 162300Z 20005KT 2000 RA BR SCT002 BKN005 OVC010 12/12 Q1002
Conditions at: BIKF (KEFLAVIK (CIV/MI, IS) observed 2300 UTC 16 July 2019
Temperature: 12.0°C (54°F)
Dewpoint: 12.0°C (54°F) [RH = 100%]
Pressure (altimeter): 29.59 inches Hg (1002.0 mb)
Winds: from the SSW (200 degrees) at 6 MPH (5 knots; 2.6 m/s)
Visibility: 1.24 miles (2.00 km)
Ceiling: 500 feet AGL
Clouds: scattered clouds at 200 feet AGL
broken clouds at 500 feet AGL
overcast cloud deck at 1000 feet AGL
Weather: RA BR  (moderate rain, mist)

METAR text: BIKF 162230Z 30003KT 5000 RA BR SCT002 OVC013 12/12 Q1002
Conditions at: BIKF (KEFLAVIK (CIV/MI, IS) observed 2230 UTC 16 July 2019
Temperature: 12.0°C (54°F)
Dewpoint: 12.0°C (54°F) [RH = 100%]
Pressure (altimeter): 29.59 inches Hg (1002.0 mb)
Winds: from the WNW (300 degrees) at 3 MPH (3 knots; 1.5 m/s)
Visibility: 3 miles ( 5 km)
Ceiling: 1300 feet AGL
Clouds: scattered clouds at 200 feet AGL
overcast cloud deck at 1300 feet AGL
Weather: RA BR  (moderate rain, mist)

METAR text: BIKF 162200Z 31002KT 9999 -RA FEW002 BKN012 OVC017 13/13 Q1002
Conditions at: BIKF (KEFLAVIK (CIV/MI, IS) observed 2200 UTC 16 July 2019
Temperature: 13.0°C (55°F)
Dewpoint: 13.0°C (55°F) [RH = 100%]
Pressure (altimeter): 29.59 inches Hg (1002.0 mb)
Winds: from the NW (310 degrees) at 2 MPH (2 knots; 1.0 m/s)
Visibility: 6 or more miles (10+ km)
Ceiling: 1200 feet AGL
Clouds: few clouds at 200 feet AGL
broken clouds at 1200 feet AGL
overcast cloud deck at 1700 feet AGL
Weather: -RA  (light rain)

METAR text: BIKF 162130Z 36003KT 9999 -RA FEW004 BKN020 OVC029 13/13 Q1002
Conditions at: BIKF (KEFLAVIK (CIV/MI, IS) observed 2130 UTC 16 July 2019
Temperature: 13.0°C (55°F)
Dewpoint: 13.0°C (55°F) [RH = 100%]
Pressure (altimeter): 29.59 inches Hg (1002.0 mb)
Winds: from the N (360 degrees) at 3 MPH (3 knots; 1.5 m/s)
Visibility: 6 or more miles (10+ km)
Ceiling: 2000 feet AGL
Clouds: few clouds at 400 feet AGL
broken clouds at 2000 feet AGL
overcast cloud deck at 2900 feet AGL
Weather: -RA  (light rain)

METAR text: BIKF 162100Z 35005KT 9999 -RA FEW005 SCT018 OVC029 13/13 Q1002
Conditions at: BIKF (KEFLAVIK (CIV/MI, IS) observed 2100 UTC 16 July 2019
Temperature: 13.0°C (55°F)
Dewpoint: 13.0°C (55°F) [RH = 100%]
Pressure (altimeter): 29.59 inches Hg (1002.0 mb)
Winds: from the N (350 degrees) at 6 MPH (5 knots; 2.6 m/s)
Visibility: 6 or more miles (10+ km)
Ceiling: 2900 feet AGL
Clouds: few clouds at 500 feet AGL
scattered clouds at 1800 feet AGL
overcast cloud deck at 2900 feet AGL
Weather: -RA  (light rain)

METAR text: BIKF 162030Z 36005KT 9999 -RA FEW004 SCT018 OVC032 13/13 Q1003
Conditions at: BIKF (KEFLAVIK (CIV/MI, IS) observed 2030 UTC 16 July 2019
Temperature: 13.0°C (55°F)
Dewpoint: 13.0°C (55°F) [RH = 100%]
Pressure (altimeter): 29.62 inches Hg (1003.0 mb)
Winds: from the N (360 degrees) at 6 MPH (5 knots; 2.6 m/s)
Visibility: 6 or more miles (10+ km)
Ceiling: 3200 feet AGL
Clouds: few clouds at 400 feet AGL
scattered clouds at 1800 feet AGL
overcast cloud deck at 3200 feet AGL
Weather: -RA  (light rain)

METAR text: BIKF 162000Z 35006KT 9999 -RA FEW003 SCT015 OVC030 13/13 Q1003
Conditions at: BIKF (KEFLAVIK (CIV/MI, IS) observed 2000 UTC 16 July 2019
Temperature: 13.0°C (55°F)
Dewpoint: 13.0°C (55°F) [RH = 100%]
Pressure (altimeter): 29.62 inches Hg (1003.0 mb)
Winds: from the N (350 degrees) at 7 MPH (6 knots; 3.1 m/s)
Visibility: 6 or more miles (10+ km)
Ceiling: 3000 feet AGL
Clouds: few clouds at 300 feet AGL
scattered clouds at 1500 feet AGL
overcast cloud deck at 3000 feet AGL
Weather: -RA  (light rain)

METAR text: BIKF 161930Z 36007KT 9999 -RA FEW003 BKN012 OVC014 13/13 Q1003
Conditions at: BIKF (KEFLAVIK (CIV/MI, IS) observed 1930 UTC 16 July 2019
Temperature: 13.0°C (55°F)
Dewpoint: 13.0°C (55°F) [RH = 100%]
Pressure (altimeter): 29.62 inches Hg (1003.0 mb)
Winds: from the N (360 degrees) at 8 MPH (7 knots; 3.6 m/s)
Visibility: 6 or more miles (10+ km)
Ceiling: 1200 feet AGL
Clouds: few clouds at 300 feet AGL
broken clouds at 1200 feet AGL
overcast cloud deck at 1400 feet AGL
Weather: -RA  (light rain)

METAR text: BIKF 161900Z 36007KT 9999 -RA FEW002 BKN008 OVC012 13/13 Q1003
Conditions at: BIKF (KEFLAVIK (CIV/MI, IS) observed 1900 UTC 16 July 2019
Temperature: 13.0°C (55°F)
Dewpoint: 13.0°C (55°F) [RH = 100%]
Pressure (altimeter): 29.62 inches Hg (1003.0 mb)
Winds: from the N (360 degrees) at 8 MPH (7 knots; 3.6 m/s)
Visibility: 6 or more miles (10+ km)
Ceiling: 800 feet AGL
Clouds: few clouds at 200 feet AGL
broken clouds at 800 feet AGL
overcast cloud deck at 1200 feet AGL
Weather: -RA  (light rain)

METAR text: BIKF 161830Z 02005KT 350V060 9999 RA FEW004 BKN006 OVC012 13/13 Q1003
Conditions at: BIKF (KEFLAVIK (CIV/MI, IS) observed 1830 UTC 16 July 2019
Temperature: 13.0°C (55°F)
Dewpoint: 13.0°C (55°F) [RH = 100%]
Pressure (altimeter): 29.62 inches Hg (1003.0 mb)
Winds: from the NNE (20 degrees) at 6 MPH (5 knots; 2.6 m/s)
Visibility: 6 or more miles (10+ km)
Ceiling: 600 feet AGL
Clouds: few clouds at 400 feet AGL
broken clouds at 600 feet AGL
overcast cloud deck at 1200 feet AGL
Weather: RA  (moderate rain)

METAR text: BIKF 161800Z 03005KT 9999 -RA BKN005 OVC015 13/13 Q1003
Conditions at: BIKF (KEFLAVIK (CIV/MI, IS) observed 1800 UTC 16 July 2019
Temperature: 13.0°C (55°F)
Dewpoint: 13.0°C (55°F) [RH = 100%]
Pressure (altimeter): 29.62 inches Hg (1003.0 mb)
Winds: from the NNE (30 degrees) at 6 MPH (5 knots; 2.6 m/s)
Visibility: 6 or more miles (10+ km)
Ceiling: 500 feet AGL
Clouds: broken clouds at 500 feet AGL
overcast cloud deck at 1500 feet AGL
Weather: -RA  (light rain)

METAR text: BIKF 161730Z 05006KT 9999 RA SCT004 BKN010 OVC018 13/13 Q1003
Conditions at: BIKF (KEFLAVIK (CIV/MI, IS) observed 1730 UTC 16 July 2019
Temperature: 13.0°C (55°F)
Dewpoint: 13.0°C (55°F) [RH = 100%]
Pressure (altimeter): 29.62 inches Hg (1003.0 mb)
Winds: from the NE (50 degrees) at 7 MPH (6 knots; 3.1 m/s)
Visibility: 6 or more miles (10+ km)
Ceiling: 1000 feet AGL
Clouds: scattered clouds at 400 feet AGL
broken clouds at 1000 feet AGL
overcast cloud deck at 1800 feet AGL
Weather: RA  (moderate rain)

METAR text: BIKF 161700Z 05009KT 8000 RA BR FEW004 SCT014 BKN018 13/13 Q1003
Conditions at: BIKF (KEFLAVIK (CIV/MI, IS) observed 1700 UTC 16 July 2019
Temperature: 13.0°C (55°F)
Dewpoint: 13.0°C (55°F) [RH = 100%]
Pressure (altimeter): 29.62 inches Hg (1003.0 mb)
Winds: from the NE (50 degrees) at 10 MPH (9 knots; 4.6 m/s)
Visibility: 5 miles ( 8 km)
Ceiling: 1800 feet AGL
Clouds: few clouds at 400 feet AGL
scattered clouds at 1400 feet AGL
broken clouds at 1800 feet AGL
Weather: RA BR  (moderate rain, mist)

METAR text: BIKF 161630Z 04004KT 360V070 9999 VCSH FEW008 SCT024 BKN032 15/13 Q1003
Conditions at: BIKF (KEFLAVIK (CIV/MI, IS) observed 1630 UTC 16 July 2019
Temperature: 15.0°C (59°F)
Dewpoint: 13.0°C (55°F) [RH = 88%]
Pressure (altimeter): 29.62 inches Hg (1003.0 mb)
Winds: from the NE (40 degrees) at 5 MPH (4 knots; 2.1 m/s)
Visibility: 6 or more miles (10+ km)
Ceiling: 3200 feet AGL
Clouds: few clouds at 800 feet AGL
scattered clouds at 2400 feet AGL
broken clouds at 3200 feet AGL
Weather: VCSH  (showers in vicinity)

METAR text: BIKF 161600Z 36008KT 9999 FEW002 SCT022 BKN038 15/12 Q1003
Conditions at: BIKF (KEFLAVIK (CIV/MI, IS) observed 1600 UTC 16 July 2019
Temperature: 15.0°C (59°F)
Dewpoint: 12.0°C (54°F) [RH = 82%]
Pressure (altimeter): 29.62 inches Hg (1003.0 mb)
Winds: from the N (360 degrees) at 9 MPH (8 knots; 4.1 m/s)
Visibility: 6 or more miles (10+ km)
Ceiling: 3800 feet AGL
Clouds: few clouds at 200 feet AGL
scattered clouds at 2200 feet AGL
broken clouds at 3800 feet AGL
Weather: no significant weather observed at this time

METAR text: BIKF 161530Z 11007KT 030V140 9999 FEW015 BKN023 16/11 Q1003
Conditions at: BIKF (KEFLAVIK (CIV/MI, IS) observed 1530 UTC 16 July 2019
Temperature: 16.0°C (61°F)
Dewpoint: 11.0°C (52°F) [RH = 72%]
Pressure (altimeter): 29.62 inches Hg (1003.0 mb)
Winds: from the ESE (110 degrees) at 8 MPH (7 knots; 3.6 m/s)
Visibility: 6 or more miles (10+ km)
Ceiling: 2300 feet AGL
Clouds: few clouds at 1500 feet AGL
broken clouds at 2300 feet AGL
Weather: no significant weather observed at this time

METAR text: BIKF 161500Z 12007KT 080V160 9999 FEW015 BKN024 16/12 Q1004
Conditions at: BIKF (KEFLAVIK (CIV/MI, IS) observed 1500 UTC 16 July 2019
Temperature: 16.0°C (61°F)
Dewpoint: 12.0°C (54°F) [RH = 77%]
Pressure (altimeter): 29.65 inches Hg (1004.0 mb)
Winds: from the ESE (120 degrees) at 8 MPH (7 knots; 3.6 m/s)
Visibility: 6 or more miles (10+ km)
Ceiling: 2400 feet AGL
Clouds: few clouds at 1500 feet AGL
broken clouds at 2400 feet AGL
Weather: no significant weather observed at this time

METAR text: BIKF 161430Z 11011KT 9999 FEW015 SCT024 BKN130 16/12 Q1004
Conditions at: BIKF (KEFLAVIK (CIV/MI, IS) observed 1430 UTC 16 July 2019
Temperature: 16.0°C (61°F)
Dewpoint: 12.0°C (54°F) [RH = 77%]
Pressure (altimeter): 29.65 inches Hg (1004.0 mb)
Winds: from the ESE (110 degrees) at 13 MPH (11 knots; 5.7 m/s)
Visibility: 6 or more miles (10+ km)
Ceiling: 13000 feet AGL
Clouds: few clouds at 1500 feet AGL
scattered clouds at 2400 feet AGL
broken clouds at 13000 feet AGL
Weather: no significant weather observed at this time

METAR text: BIKF 161400Z 12010KT 080V150 9999 FEW015TCU SCT046 BKN130 16/11 Q1004
Conditions at: BIKF (KEFLAVIK (CIV/MI, IS) observed 1400 UTC 16 July 2019
Temperature: 16.0°C (61°F)
Dewpoint: 11.0°C (52°F) [RH = 72%]
Pressure (altimeter): 29.65 inches Hg (1004.0 mb)
Winds: from the ESE (120 degrees) at 12 MPH (10 knots; 5.1 m/s)
Visibility: 6 or more miles (10+ km)
Ceiling: 13000 feet AGL
Clouds: few clouds at 1500 feet AGL
scattered clouds at 4600 feet AGL
broken clouds at 13000 feet AGL
Weather: no significant weather observed at this time

METAR text: BIKF 161330Z 14009KT 110V190 9999 FEW015TCU SCT046 BKN130 15/13 Q1004
Conditions at: BIKF (KEFLAVIK (CIV/MI, IS) observed 1330 UTC 16 July 2019
Temperature: 15.0°C (59°F)
Dewpoint: 13.0°C (55°F) [RH = 88%]
Pressure (altimeter): 29.65 inches Hg (1004.0 mb)
Winds: from the SE (140 degrees) at 10 MPH (9 knots; 4.6 m/s)
Visibility: 6 or more miles (10+ km)
Ceiling: 13000 feet AGL
Clouds: few clouds at 1500 feet AGL
scattered clouds at 4600 feet AGL
broken clouds at 13000 feet AGL
Weather: no significant weather observed at this time

METAR text: BIKF 161300Z 13010KT 9999 FEW013 BKN049 BKN080 14/12 Q1005
Conditions at: BIKF (KEFLAVIK (CIV/MI, IS) observed 1300 UTC 16 July 2019
Temperature: 14.0°C (57°F)
Dewpoint: 12.0°C (54°F) [RH = 88%]
Pressure (altimeter): 29.68 inches Hg (1005.0 mb)
Winds: from the SE (130 degrees) at 12 MPH (10 knots; 5.1 m/s)
Visibility: 6 or more miles (10+ km)
Ceiling: 4900 feet AGL
Clouds: few clouds at 1300 feet AGL
broken clouds at 4900 feet AGL
broken clouds at 8000 feet AGL
Weather: no significant weather observed at this time

METAR text: BIKF 161230Z 13009KT 9999 VCSH FEW002 BKN015 BKN080 14/12 Q1005
Conditions at: BIKF (KEFLAVIK (CIV/MI, IS) observed 1230 UTC 16 July 2019
Temperature: 14.0°C (57°F)
Dewpoint: 12.0°C (54°F) [RH = 88%]
Pressure (altimeter): 29.68 inches Hg (1005.0 mb)
Winds: from the SE (130 degrees) at 10 MPH (9 knots; 4.6 m/s)
Visibility: 6 or more miles (10+ km)
Ceiling: 1500 feet AGL
Clouds: few clouds at 200 feet AGL
broken clouds at 1500 feet AGL
broken clouds at 8000 feet AGL
Weather: VCSH  (showers in vicinity)

METAR text: BIKF 161200Z 12010KT 9999 FEW007 BKN013 BKN080 14/12 Q1005
Conditions at: BIKF (KEFLAVIK (CIV/MI, IS) observed 1200 UTC 16 July 2019
Temperature: 14.0°C (57°F)
Dewpoint: 12.0°C (54°F) [RH = 88%]
Pressure (altimeter): 29.68 inches Hg (1005.0 mb)
Winds: from the ESE (120 degrees) at 12 MPH (10 knots; 5.1 m/s)
Visibility: 6 or more miles (10+ km)
Ceiling: 1300 feet AGL
Clouds: few clouds at 700 feet AGL
broken clouds at 1300 feet AGL
broken clouds at 8000 feet AGL
Weather: no significant weather observed at this time

METAR text: BIKF 161130Z 13012KT 9999 FEW007 BKN014 BKN034 14/12 Q1005
Conditions at: BIKF (KEFLAVIK (CIV/MI, IS) observed 1130 UTC 16 July 2019
Temperature: 14.0°C (57°F)
Dewpoint: 12.0°C (54°F) [RH = 88%]
Pressure (altimeter): 29.68 inches Hg (1005.0 mb)
Winds: from the SE (130 degrees) at 14 MPH (12 knots; 6.2 m/s)
Visibility: 6 or more miles (10+ km)
Ceiling: 1400 feet AGL
Clouds: few clouds at 700 feet AGL
broken clouds at 1400 feet AGL
broken clouds at 3400 feet AGL
Weather: no significant weather observed at this time

METAR text: BIKF 161100Z 11008KT 9999 FEW002 BKN014 14/12 Q1005
Conditions at: BIKF (KEFLAVIK (CIV/MI, IS) observed 1100 UTC 16 July 2019
Temperature: 14.0°C (57°F)
Dewpoint: 12.0°C (54°F) [RH = 88%]
Pressure (altimeter): 29.68 inches Hg (1005.0 mb)
Winds: from the ESE (110 degrees) at 9 MPH (8 knots; 4.1 m/s)
Visibility: 6 or more miles (10+ km)
Ceiling: 1400 feet AGL
Clouds: few clouds at 200 feet AGL
broken clouds at 1400 feet AGL
Weather: no significant weather observed at this time

METAR text: BIKF 161030Z 12009KT 080V140 9999 FEW006 BKN014 14/13 Q1005
Conditions at: BIKF (KEFLAVIK (CIV/MI, IS) observed 1030 UTC 16 July 2019
Temperature: 14.0°C (57°F)
Dewpoint: 13.0°C (55°F) [RH = 94%]
Pressure (altimeter): 29.68 inches Hg (1005.0 mb)
Winds: from the ESE (120 degrees) at 10 MPH (9 knots; 4.6 m/s)
Visibility: 6 or more miles (10+ km)
Ceiling: 1400 feet AGL
Clouds: few clouds at 600 feet AGL
broken clouds at 1400 feet AGL
Weather: no significant weather observed at this time

METAR text: BIKF 161000Z 06003KT 9999 FEW007 BKN020 BKN110 14/13 Q1005
Conditions at: BIKF (KEFLAVIK (CIV/MI, IS) observed 1000 UTC 16 July 2019
Temperature: 14.0°C (57°F)
Dewpoint: 13.0°C (55°F) [RH = 94%]
Pressure (altimeter): 29.68 inches Hg (1005.0 mb)
Winds: from the ENE (60 degrees) at 3 MPH (3 knots; 1.5 m/s)
Visibility: 6 or more miles (10+ km)
Ceiling: 2000 feet AGL
Clouds: few clouds at 700 feet AGL
broken clouds at 2000 feet AGL
broken clouds at 11000 feet AGL
Weather: no significant weather observed at this time

METAR text: BIKF 160930Z 06004KT 9999 VCSH FEW007 BKN020 BKN070 13/13 Q1005
Conditions at: BIKF (KEFLAVIK (CIV/MI, IS) observed 0930 UTC 16 July 2019
Temperature: 13.0°C (55°F)
Dewpoint: 13.0°C (55°F) [RH = 100%]
Pressure (altimeter): 29.68 inches Hg (1005.0 mb)
Winds: from the ENE (60 degrees) at 5 MPH (4 knots; 2.1 m/s)
Visibility: 6 or more miles (10+ km)
Ceiling: 2000 feet AGL
Clouds: few clouds at 700 feet AGL
broken clouds at 2000 feet AGL
broken clouds at 7000 feet AGL
Weather: VCSH  (showers in vicinity)

METAR text: BIKF 160900Z 06004KT 9999 VCSH FEW003 BKN017 BKN070 13/13 Q1006
Conditions at: BIKF (KEFLAVIK (CIV/MI, IS) observed 0900 UTC 16 July 2019
Temperature: 13.0°C (55°F)
Dewpoint: 13.0°C (55°F) [RH = 100%]
Pressure (altimeter): 29.70 inches Hg (1006.0 mb)
Winds: from the ENE (60 degrees) at 5 MPH (4 knots; 2.1 m/s)
Visibility: 6 or more miles (10+ km)
Ceiling: 1700 feet AGL
Clouds: few clouds at 300 feet AGL
broken clouds at 1700 feet AGL
broken clouds at 7000 feet AGL
Weather: VCSH  (showers in vicinity)

METAR text: BIKF 160830Z 07005KT 9999 -RA FEW005 SCT018 OVC060 13/12 Q1006
Conditions at: BIKF (KEFLAVIK (CIV/MI, IS) observed 0830 UTC 16 July 2019
Temperature: 13.0°C (55°F)
Dewpoint: 12.0°C (54°F) [RH = 94%]
Pressure (altimeter): 29.70 inches Hg (1006.0 mb)
Winds: from the ENE (70 degrees) at 6 MPH (5 knots; 2.6 m/s)
Visibility: 6 or more miles (10+ km)
Ceiling: 6000 feet AGL
Clouds: few clouds at 500 feet AGL
scattered clouds at 1800 feet AGL
overcast cloud deck at 6000 feet AGL
Weather: -RA  (light rain)

METAR text: BIKF 160800Z 06006KT 9999 FEW006 SCT038 BKN070 13/12 Q1006
Conditions at: BIKF (KEFLAVIK (CIV/MI, IS) observed 0800 UTC 16 July 2019
Temperature: 13.0°C (55°F)
Dewpoint: 12.0°C (54°F) [RH = 94%]
Pressure (altimeter): 29.70 inches Hg (1006.0 mb)
Winds: from the ENE (60 degrees) at 7 MPH (6 knots; 3.1 m/s)
Visibility: 6 or more miles (10+ km)
Ceiling: 7000 feet AGL
Clouds: few clouds at 600 feet AGL
scattered clouds at 3800 feet AGL
broken clouds at 7000 feet AGL
Weather: no significant weather observed at this time

METAR text: BIKF 160730Z 05008KT 9999 -DZRA FEW004 SCT009 BKN038 13/12 Q1006
Conditions at: BIKF (KEFLAVIK (CIV/MI, IS) observed 0730 UTC 16 July 2019
Temperature: 13.0°C (55°F)
Dewpoint: 12.0°C (54°F) [RH = 94%]
Pressure (altimeter): 29.70 inches Hg (1006.0 mb)
Winds: from the NE (50 degrees) at 9 MPH (8 knots; 4.1 m/s)
Visibility: 6 or more miles (10+ km)
Ceiling: 3800 feet AGL
Clouds: few clouds at 400 feet AGL
scattered clouds at 900 feet AGL
broken clouds at 3800 feet AGL
Weather: -DZ -RA  (light drizzle, light rain)

METAR text: BIKF 160700Z 05007KT 9999 -RA FEW004 SCT009 BKN038 12/12 Q1006
Conditions at: BIKF (KEFLAVIK (CIV/MI, IS) observed 0700 UTC 16 July 2019
Temperature: 12.0°C (54°F)
Dewpoint: 12.0°C (54°F) [RH = 100%]
Pressure (altimeter): 29.70 inches Hg (1006.0 mb)
Winds: from the NE (50 degrees) at 8 MPH (7 knots; 3.6 m/s)
Visibility: 6 or more miles (10+ km)
Ceiling: 3800 feet AGL
Clouds: few clouds at 400 feet AGL
scattered clouds at 900 feet AGL
broken clouds at 3800 feet AGL
Weather: -RA  (light rain)

METAR text: BIKF 160630Z 04007KT 9999 VCSH FEW007 SCT013 BKN026 12/12 Q1007
Conditions at: BIKF (KEFLAVIK (CIV/MI, IS) observed 0630 UTC 16 July 2019
Temperature: 12.0°C (54°F)
Dewpoint: 12.0°C (54°F) [RH = 100%]
Pressure (altimeter): 29.73 inches Hg (1007.0 mb)
Winds: from the NE (40 degrees) at 8 MPH (7 knots; 3.6 m/s)
Visibility: 6 or more miles (10+ km)
Ceiling: 2600 feet AGL
Clouds: few clouds at 700 feet AGL
scattered clouds at 1300 feet AGL
broken clouds at 2600 feet AGL
Weather: VCSH  (showers in vicinity)

METAR text: BIKF 160600Z 04008KT 9999 -RA FEW007 SCT013 BKN026 12/12 Q1007
Conditions at: BIKF (KEFLAVIK (CIV/MI, IS) observed 0600 UTC 16 July 2019
Temperature: 12.0°C (54°F)
Dewpoint: 12.0°C (54°F) [RH = 100%]
Pressure (altimeter): 29.73 inches Hg (1007.0 mb)
Winds: from the NE (40 degrees) at 9 MPH (8 knots; 4.1 m/s)
Visibility: 6 or more miles (10+ km)
Ceiling: 2600 feet AGL
Clouds: few clouds at 700 feet AGL
scattered clouds at 1300 feet AGL
broken clouds at 2600 feet AGL
Weather: -RA  (light rain)

METAR text: BIKF 160530Z 04008KT 9999 -DZRA FEW005 SCT011 BKN026 12/12 Q1007
Conditions at: BIKF (KEFLAVIK (CIV/MI, IS) observed 0530 UTC 16 July 2019
Temperature: 12.0°C (54°F)
Dewpoint: 12.0°C (54°F) [RH = 100%]
Pressure (altimeter): 29.73 inches Hg (1007.0 mb)
Winds: from the NE (40 degrees) at 9 MPH (8 knots; 4.1 m/s)
Visibility: 6 or more miles (10+ km)
Ceiling: 2600 feet AGL
Clouds: few clouds at 500 feet AGL
scattered clouds at 1100 feet AGL
broken clouds at 2600 feet AGL
Weather: -DZ -RA  (light drizzle, light rain)

METAR text: BIKF 160500Z 04009KT 9999 -RA FEW003 BKN011 OVC019 12/12 Q1007
Conditions at: BIKF (KEFLAVIK (CIV/MI, IS) observed 0500 UTC 16 July 2019
Temperature: 12.0°C (54°F)
Dewpoint: 12.0°C (54°F) [RH = 100%]
Pressure (altimeter): 29.73 inches Hg (1007.0 mb)
Winds: from the NE (40 degrees) at 10 MPH (9 knots; 4.6 m/s)
Visibility: 6 or more miles (10+ km)
Ceiling: 1100 feet AGL
Clouds: few clouds at 300 feet AGL
broken clouds at 1100 feet AGL
overcast cloud deck at 1900 feet AGL
Weather: -RA  (light rain)

METAR text: BIKF 160430Z 04010KT 9999 -RA FEW005 BKN009 OVC015 12/12 Q1008
Conditions at: BIKF (KEFLAVIK (CIV/MI, IS) observed 0430 UTC 16 July 2019
Temperature: 12.0°C (54°F)
Dewpoint: 12.0°C (54°F) [RH = 100%]
Pressure (altimeter): 29.76 inches Hg (1008.0 mb)
Winds: from the NE (40 degrees) at 12 MPH (10 knots; 5.1 m/s)
Visibility: 6 or more miles (10+ km)
Ceiling: 900 feet AGL
Clouds: few clouds at 500 feet AGL
broken clouds at 900 feet AGL
overcast cloud deck at 1500 feet AGL
Weather: -RA  (light rain)

METAR text: BIKF 160400Z 05008KT 9999 -RA FEW008 BKN011 OVC020 12/11 Q1008
Conditions at: BIKF (KEFLAVIK (CIV/MI, IS) observed 0400 UTC 16 July 2019
Temperature: 12.0°C (54°F)
Dewpoint: 11.0°C (52°F) [RH = 94%]
Pressure (altimeter): 29.76 inches Hg (1008.0 mb)
Winds: from the NE (50 degrees) at 9 MPH (8 knots; 4.1 m/s)
Visibility: 6 or more miles (10+ km)
Ceiling: 1100 feet AGL
Clouds: few clouds at 800 feet AGL
broken clouds at 1100 feet AGL
overcast cloud deck at 2000 feet AGL
Weather: -RA  (light rain)

METAR text: BIKF 160330Z 06006KT 9999 -DZRA FEW011 SCT023 BKN031 12/11 Q1008
Conditions at: BIKF (KEFLAVIK (CIV/MI, IS) observed 0330 UTC 16 July 2019
Temperature: 12.0°C (54°F)
Dewpoint: 11.0°C (52°F) [RH = 94%]
Pressure (altimeter): 29.76 inches Hg (1008.0 mb)
Winds: from the ENE (60 degrees) at 7 MPH (6 knots; 3.1 m/s)
Visibility: 6 or more miles (10+ km)
Ceiling: 3100 feet AGL
Clouds: few clouds at 1100 feet AGL
scattered clouds at 2300 feet AGL
broken clouds at 3100 feet AGL
Weather: -DZ -RA  (light drizzle, light rain)

METAR text: BIKF 160300Z 08006KT 9999 -DZ FEW014 SCT025 BKN033 12/11 Q1008
Conditions at: BIKF (KEFLAVIK (CIV/MI, IS) observed 0300 UTC 16 July 2019
Temperature: 12.0°C (54°F)
Dewpoint: 11.0°C (52°F) [RH = 94%]
Pressure (altimeter): 29.76 inches Hg (1008.0 mb)
Winds: from the E (80 degrees) at 7 MPH (6 knots; 3.1 m/s)
Visibility: 6 or more miles (10+ km)
Ceiling: 3300 feet AGL
Clouds: few clouds at 1400 feet AGL
scattered clouds at 2500 feet AGL
broken clouds at 3300 feet AGL
Weather: -DZ  (light drizzle)

METAR text: BIKF 160230Z 09006KT 9999 FEW012 SCT022 BKN033 12/11 Q1009
Conditions at: BIKF (KEFLAVIK (CIV/MI, IS) observed 0230 UTC 16 July 2019
Temperature: 12.0°C (54°F)
Dewpoint: 11.0°C (52°F) [RH = 94%]
Pressure (altimeter): 29.79 inches Hg (1009.0 mb)
Winds: from the E (90 degrees) at 7 MPH (6 knots; 3.1 m/s)
Visibility: 6 or more miles (10+ km)
Ceiling: 3300 feet AGL
Clouds: few clouds at 1200 feet AGL
scattered clouds at 2200 feet AGL
broken clouds at 3300 feet AGL
Weather: no significant weather observed at this time

METAR text: BIKF 160200Z KT 9999 FEW017 BKN039 BKN080 /////// Q////
Conditions at: BIKF (KEFLAVIK (CIV/MI, IS) observed 0200 UTC 16 July 2019
Temperature: missing
Dewpoint: missing
Pressure (altimeter): missing
Winds: missing
Visibility: 6 or more miles (10+ km)
Ceiling: 3900 feet AGL
Clouds: few clouds at 1700 feet AGL
broken clouds at 3900 feet AGL
broken clouds at 8000 feet AGL
Weather: no significant weather observed at this time

METAR text: BIKF 160130Z 09006KT 9999 FEW017 BKN039 BKN080 12/12 Q1010
Conditions at: BIKF (KEFLAVIK (CIV/MI, IS) observed 0130 UTC 16 July 2019
Temperature: 12.0°C (54°F)
Dewpoint: 12.0°C (54°F) [RH = 100%]
Pressure (altimeter): 29.82 inches Hg (1010.0 mb)
Winds: from the E (90 degrees) at 7 MPH (6 knots; 3.1 m/s)
Visibility: 6 or more miles (10+ km)
Ceiling: 3900 feet AGL
Clouds: few clouds at 1700 feet AGL
broken clouds at 3900 feet AGL
broken clouds at 8000 feet AGL
Weather: no significant weather observed at this time

METAR text: BIKF 160100Z 10008KT 9999 FEW017 BKN039 BKN080 12/12 Q1010
Conditions at: BIKF (KEFLAVIK (CIV/MI, IS) observed 0100 UTC 16 July 2019
Temperature: 12.0°C (54°F)
Dewpoint: 12.0°C (54°F) [RH = 100%]
Pressure (altimeter): 29.82 inches Hg (1010.0 mb)
Winds: from the E (100 degrees) at 9 MPH (8 knots; 4.1 m/s)
Visibility: 6 or more miles (10+ km)
Ceiling: 3900 feet AGL
Clouds: few clouds at 1700 feet AGL
broken clouds at 3900 feet AGL
broken clouds at 8000 feet AGL
Weather: no significant weather observed at this time

METAR text: BIKF 160030Z KT 9999 FEW017 BKN039 BKN080 /////// Q////
Conditions at: BIKF (KEFLAVIK (CIV/MI, IS) observed 0030 UTC 16 July 2019
Temperature: missing
Dewpoint: missing
Pressure (altimeter): missing
Winds: missing
Visibility: 6 or more miles (10+ km)
Ceiling: 3900 feet AGL
Clouds: few clouds at 1700 feet AGL
broken clouds at 3900 feet AGL
broken clouds at 8000 feet AGL
Weather: no significant weather observed at this time

METAR text: BIKF 160000Z COR 10009KT 9999 FEW015 BKN039 BKN080 13/12 Q1010
Conditions at: BIKF (KEFLAVIK (CIV/MI, IS) observed 0000 UTC 16 July 2019
Temperature: 13.0°C (55°F)
Dewpoint: 12.0°C (54°F) [RH = 94%]
Pressure (altimeter): 29.82 inches Hg (1010.0 mb)
Winds: from the E (100 degrees) at 10 MPH (9 knots; 4.6 m/s)
Visibility: 6 or more miles (10+ km)
Ceiling: 3900 feet AGL
Clouds: few clouds at 1500 feet AGL
broken clouds at 3900 feet AGL
broken clouds at 8000 feet AGL
Weather: no significant weather observed at this time

METAR text: BIKF 152330Z 11010KT 9999 FEW026 SCT035 BKN044 13/11 Q1010
Conditions at: BIKF (KEFLAVIK (CIV/MI, IS) observed 2330 UTC 15 July 2019
Temperature: 13.0°C (55°F)
Dewpoint: 11.0°C (52°F) [RH = 88%]
Pressure (altimeter): 29.82 inches Hg (1010.0 mb)
Winds: from the ESE (110 degrees) at 12 MPH (10 knots; 5.1 m/s)
Visibility: 6 or more miles (10+ km)
Ceiling: 4400 feet AGL
Clouds: few clouds at 2600 feet AGL
scattered clouds at 3500 feet AGL
broken clouds at 4400 feet AGL
Weather: no significant weather observed at this time

METAR text: BIKF 152300Z 11010KT 9999 FEW021 SCT032 BKN044 13/11 Q1011
Conditions at: BIKF (KEFLAVIK (CIV/MI, IS) observed 2300 UTC 15 July 2019
Temperature: 13.0°C (55°F)
Dewpoint: 11.0°C (52°F) [RH = 88%]
Pressure (altimeter): 29.85 inches Hg (1011.0 mb)
Winds: from the ESE (110 degrees) at 12 MPH (10 knots; 5.1 m/s)
Visibility: 6 or more miles (10+ km)
Ceiling: 4400 feet AGL
Clouds: few clouds at 2100 feet AGL
scattered clouds at 3200 feet AGL
broken clouds at 4400 feet AGL
Weather: no significant weather observed at this time

METAR text: BIKF 152230Z 11010KT 9999 SCT026 BKN034 BKN055 14/12 Q1011
Conditions at: BIKF (KEFLAVIK (CIV/MI, IS) observed 2230 UTC 15 July 2019
Temperature: 14.0°C (57°F)
Dewpoint: 12.0°C (54°F) [RH = 88%]
Pressure (altimeter): 29.85 inches Hg (1011.0 mb)
Winds: from the ESE (110 degrees) at 12 MPH (10 knots; 5.1 m/s)
Visibility: 6 or more miles (10+ km)
Ceiling: 3400 feet AGL
Clouds: scattered clouds at 2600 feet AGL
broken clouds at 3400 feet AGL
broken clouds at 5500 feet AGL
Weather: no significant weather observed at this time

METAR text: BIKF 152200Z 12009KT 9999 SCT024 BKN031 14/12 Q1011
Conditions at: BIKF (KEFLAVIK (CIV/MI, IS) observed 2200 UTC 15 July 2019
Temperature: 14.0°C (57°F)
Dewpoint: 12.0°C (54°F) [RH = 88%]
Pressure (altimeter): 29.85 inches Hg (1011.0 mb)
Winds: from the ESE (120 degrees) at 10 MPH (9 knots; 4.6 m/s)
Visibility: 6 or more miles (10+ km)
Ceiling: 3100 feet AGL
Clouds: scattered clouds at 2400 feet AGL
broken clouds at 3100 feet AGL
Weather: no significant weather observed at this time

METAR text: BIKF 152130Z 11008KT 9999 FEW022 SCT026 BKN045 14/12 Q1011
Conditions at: BIKF (KEFLAVIK (CIV/MI, IS) observed 2130 UTC 15 July 2019
Temperature: 14.0°C (57°F)
Dewpoint: 12.0°C (54°F) [RH = 88%]
Pressure (altimeter): 29.85 inches Hg (1011.0 mb)
Winds: from the ESE (110 degrees) at 9 MPH (8 knots; 4.1 m/s)
Visibility: 6 or more miles (10+ km)
Ceiling: 4500 feet AGL
Clouds: few clouds at 2200 feet AGL
scattered clouds at 2600 feet AGL
broken clouds at 4500 feet AGL
Weather: no significant weather observed at this time

METAR text: BIKF 152100Z 10008KT 9999 FEW014 BKN028 BKN045 13/12 Q1011
Conditions at: BIKF (KEFLAVIK (CIV/MI, IS) observed 2100 UTC 15 July 2019
Temperature: 13.0°C (55°F)
Dewpoint: 12.0°C (54°F) [RH = 94%]
Pressure (altimeter): 29.85 inches Hg (1011.0 mb)
Winds: from the E (100 degrees) at 9 MPH (8 knots; 4.1 m/s)
Visibility: 6 or more miles (10+ km)
Ceiling: 2800 feet AGL
Clouds: few clouds at 1400 feet AGL
broken clouds at 2800 feet AGL
broken clouds at 4500 feet AGL
Weather: no significant weather observed at this time

METAR text: BIKF 152030Z 10012KT 9999 FEW012 SCT018 BKN022 14/12 Q1011
Conditions at: BIKF (KEFLAVIK (CIV/MI, IS) observed 2030 UTC 15 July 2019
Temperature: 14.0°C (57°F)
Dewpoint: 12.0°C (54°F) [RH = 88%]
Pressure (altimeter): 29.85 inches Hg (1011.0 mb)
Winds: from the E (100 degrees) at 14 MPH (12 knots; 6.2 m/s)
Visibility: 6 or more miles (10+ km)
Ceiling: 2200 feet AGL
Clouds: few clouds at 1200 feet AGL
scattered clouds at 1800 feet AGL
broken clouds at 2200 feet AGL
Weather: no significant weather observed at this time

METAR text: BIKF 152000Z 12015KT 9999 FEW012 SCT018 BKN022 13/12 Q1011
Conditions at: BIKF (KEFLAVIK (CIV/MI, IS) observed 2000 UTC 15 July 2019
Temperature: 13.0°C (55°F)
Dewpoint: 12.0°C (54°F) [RH = 94%]
Pressure (altimeter): 29.85 inches Hg (1011.0 mb)
Winds: from the ESE (120 degrees) at 17 MPH (15 knots; 7.7 m/s)
Visibility: 6 or more miles (10+ km)
Ceiling: 2200 feet AGL
Clouds: few clouds at 1200 feet AGL
scattered clouds at 1800 feet AGL
broken clouds at 2200 feet AGL
Weather: no significant weather observed at this time

METAR text: BIKF 151930Z 13013KT 9999 VCSH FEW009 BKN013 BKN018 14/12 Q1011
Conditions at: BIKF (KEFLAVIK (CIV/MI, IS) observed 1930 UTC 15 July 2019
Temperature: 14.0°C (57°F)
Dewpoint: 12.0°C (54°F) [RH = 88%]
Pressure (altimeter): 29.85 inches Hg (1011.0 mb)
Winds: from the SE (130 degrees) at 15 MPH (13 knots; 6.7 m/s)
Visibility: 6 or more miles (10+ km)
Ceiling: 1300 feet AGL
Clouds: few clouds at 900 feet AGL
broken clouds at 1300 feet AGL
broken clouds at 1800 feet AGL
Weather: VCSH  (showers in vicinity)

METAR text: BIKF 151900Z /////KT 9999 VCSH FEW009 BKN013 BKN018 /////// Q1012
Conditions at: BIKF (KEFLAVIK (CIV/MI, IS) observed 1900 UTC 15 July 2019
Temperature: missing
Dewpoint: missing
Pressure (altimeter): 29.88 inches Hg (1012.0 mb)
Winds: missing
Visibility: 6 or more miles (10+ km)
Ceiling: 1300 feet AGL
Clouds: few clouds at 900 feet AGL
broken clouds at 1300 feet AGL
broken clouds at 1800 feet AGL
Weather: VCSH  (showers in vicinity)

METAR text: BIKF 151830Z 12013KT 9999 VCSH FEW009 BKN013 BKN018 13/12 Q1012
Conditions at: BIKF (KEFLAVIK (CIV/MI, IS) observed 1830 UTC 15 July 2019
Temperature: 13.0°C (55°F)
Dewpoint: 12.0°C (54°F) [RH = 94%]
Pressure (altimeter): 29.88 inches Hg (1012.0 mb)
Winds: from the ESE (120 degrees) at 15 MPH (13 knots; 6.7 m/s)
Visibility: 6 or more miles (10+ km)
Ceiling: 1300 feet AGL
Clouds: few clouds at 900 feet AGL
broken clouds at 1300 feet AGL
broken clouds at 1800 feet AGL
Weather: VCSH  (showers in vicinity)

METAR text: BIKF 151800Z 14017KT 9999 VCSH FEW008 SCT013 BKN017 13/12 Q1012 RERA
Conditions at: BIKF (KEFLAVIK (CIV/MI, IS) observed 1800 UTC 15 July 2019
Temperature: 13.0°C (55°F)
Dewpoint: 12.0°C (54°F) [RH = 94%]
Pressure (altimeter): 29.88 inches Hg (1012.0 mb)
Winds: from the SE (140 degrees) at 20 MPH (17 knots; 8.7 m/s)
Visibility: 6 or more miles (10+ km)
Ceiling: 1700 feet AGL
Clouds: few clouds at 800 feet AGL
scattered clouds at 1300 feet AGL
broken clouds at 1700 feet AGL
Weather: VCSH  (showers in vicinity)

METAR text: BIKF 151730Z 13010G21KT 9999 -RA FEW010 SCT014 BKN018 14/13 Q1012
Conditions at: BIKF (KEFLAVIK (CIV/MI, IS) observed 1730 UTC 15 July 2019
Temperature: 14.0°C (57°F)
Dewpoint: 13.0°C (55°F) [RH = 94%]
Pressure (altimeter): 29.88 inches Hg (1012.0 mb)
Winds: from the SE (130 degrees) at 12 MPH (10 knots; 5.1 m/s)
gusting to 24 MPH (21 knots; 10.8 m/s)
Visibility: 6 or more miles (10+ km)
Ceiling: 1800 feet AGL
Clouds: few clouds at 1000 feet AGL
scattered clouds at 1400 feet AGL
broken clouds at 1800 feet AGL
Weather: -RA  (light rain)

METAR text: BIKF 151700Z 12009KT 9999 VCSH FEW011 BKN014 BKN018 14/12 Q1012
Conditions at: BIKF (KEFLAVIK (CIV/MI, IS) observed 1700 UTC 15 July 2019
Temperature: 14.0°C (57°F)
Dewpoint: 12.0°C (54°F) [RH = 88%]
Pressure (altimeter): 29.88 inches Hg (1012.0 mb)
Winds: from the ESE (120 degrees) at 10 MPH (9 knots; 4.6 m/s)
Visibility: 6 or more miles (10+ km)
Ceiling: 1400 feet AGL
Clouds: few clouds at 1100 feet AGL
broken clouds at 1400 feet AGL
broken clouds at 1800 feet AGL
Weather: VCSH  (showers in vicinity)

METAR text: BIKF 151630Z 11008KT 080V150 9999 VCSH FEW008 BKN014 14/13 Q1012
Conditions at: BIKF (KEFLAVIK (CIV/MI, IS) observed 1630 UTC 15 July 2019
Temperature: 14.0°C (57°F)
Dewpoint: 13.0°C (55°F) [RH = 94%]
Pressure (altimeter): 29.88 inches Hg (1012.0 mb)
Winds: from the ESE (110 degrees) at 9 MPH (8 knots; 4.1 m/s)
Visibility: 6 or more miles (10+ km)
Ceiling: 1400 feet AGL
Clouds: few clouds at 800 feet AGL
broken clouds at 1400 feet AGL
Weather: VCSH  (showers in vicinity)

METAR text: BIKF 151600Z 12010KT 9999 -RA FEW007 BKN012 14/13 Q1012
Conditions at: BIKF (KEFLAVIK (CIV/MI, IS) observed 1600 UTC 15 July 2019
Temperature: 14.0°C (57°F)
Dewpoint: 13.0°C (55°F) [RH = 94%]
Pressure (altimeter): 29.88 inches Hg (1012.0 mb)
Winds: from the ESE (120 degrees) at 12 MPH (10 knots; 5.1 m/s)
Visibility: 6 or more miles (10+ km)
Ceiling: 1200 feet AGL
Clouds: few clouds at 700 feet AGL
broken clouds at 1200 feet AGL
Weather: -RA  (light rain)

METAR text: BIKF 151531Z 13011KT 9999 BKN007 BKN015 14/13 Q1013 RERA
Conditions at: BIKF (KEFLAVIK (CIV/MI, IS) observed 1531 UTC 15 July 2019
Temperature: 14.0°C (57°F)
Dewpoint: 13.0°C (55°F) [RH = 94%]
Pressure (altimeter): 29.91 inches Hg (1013.0 mb)
Winds: from the SE (130 degrees) at 13 MPH (11 knots; 5.7 m/s)
Visibility: 6 or more miles (10+ km)
Ceiling: 700 feet AGL
Clouds: broken clouds at 700 feet AGL
broken clouds at 1500 feet AGL
Weather: no significant weather observed at this time

METAR text: BIKF 151500Z 12013KT 9999 BKN007 OVC024 14/13 Q1013 RERA
Conditions at: BIKF (KEFLAVIK (CIV/MI, IS) observed 1500 UTC 15 July 2019
Temperature: 14.0°C (57°F)
Dewpoint: 13.0°C (55°F) [RH = 94%]
Pressure (altimeter): 29.91 inches Hg (1013.0 mb)
Winds: from the ESE (120 degrees) at 15 MPH (13 knots; 6.7 m/s)
Visibility: 6 or more miles (10+ km)
Ceiling: 700 feet AGL
Clouds: broken clouds at 700 feet AGL
overcast cloud deck at 2400 feet AGL
Weather: no significant weather observed at this time

METAR text: BIKF 151430Z 13015KT 9999 SCT005 BKN007 14/13 Q1013
Conditions at: BIKF (KEFLAVIK (CIV/MI, IS) observed 1430 UTC 15 July 2019
Temperature: 14.0°C (57°F)
Dewpoint: 13.0°C (55°F) [RH = 94%]
Pressure (altimeter): 29.91 inches Hg (1013.0 mb)
Winds: from the SE (130 degrees) at 17 MPH (15 knots; 7.7 m/s)
Visibility: 6 or more miles (10+ km)
Ceiling: 700 feet AGL
Clouds: scattered clouds at 500 feet AGL
broken clouds at 700 feet AGL
Weather: no significant weather observed at this time

METAR text: BIKF 151400Z 13014KT 6000 BR BKN004 OVC006 13/13 Q1013
Conditions at: BIKF (KEFLAVIK (CIV/MI, IS) observed 1400 UTC 15 July 2019
Temperature: 13.0°C (55°F)
Dewpoint: 13.0°C (55°F) [RH = 100%]
Pressure (altimeter): 29.91 inches Hg (1013.0 mb)
Winds: from the SE (130 degrees) at 16 MPH (14 knots; 7.2 m/s)
Visibility: 4 miles ( 6 km)
Ceiling: 400 feet AGL
Clouds: broken clouds at 400 feet AGL
overcast cloud deck at 600 feet AGL
Weather: BR  (mist)

METAR text: BIKF 151330Z 14016KT 4000 -DZ BR SCT003 BKN005 OVC007 13/13 Q1013
Conditions at: BIKF (KEFLAVIK (CIV/MI, IS) observed 1330 UTC 15 July 2019
Temperature: 13.0°C (55°F)
Dewpoint: 13.0°C (55°F) [RH = 100%]
Pressure (altimeter): 29.91 inches Hg (1013.0 mb)
Winds: from the SE (140 degrees) at 18 MPH (16 knots; 8.2 m/s)
Visibility: 2.49 miles (4.01 km)
Ceiling: 500 feet AGL
Clouds: scattered clouds at 300 feet AGL
broken clouds at 500 feet AGL
overcast cloud deck at 700 feet AGL
Weather: -DZ BR  (light drizzle, mist)

METAR text: BIKF 151300Z 13015KT 5000 -DZ BR BKN005 OVC007 13/13 Q1013
Conditions at: BIKF (KEFLAVIK (CIV/MI, IS) observed 1300 UTC 15 July 2019
Temperature: 13.0°C (55°F)
Dewpoint: 13.0°C (55°F) [RH = 100%]
Pressure (altimeter): 29.91 inches Hg (1013.0 mb)
Winds: from the SE (130 degrees) at 17 MPH (15 knots; 7.7 m/s)
Visibility: 3 miles ( 5 km)
Ceiling: 500 feet AGL
Clouds: broken clouds at 500 feet AGL
overcast cloud deck at 700 feet AGL
Weather: -DZ BR  (light drizzle, mist)

METAR text: BIKF 151230Z 14015KT 5000 BR BKN005 OVC007 13/13 Q1013
Conditions at: BIKF (KEFLAVIK (CIV/MI, IS) observed 1230 UTC 15 July 2019
Temperature: 13.0°C (55°F)
Dewpoint: 13.0°C (55°F) [RH = 100%]
Pressure (altimeter): 29.91 inches Hg (1013.0 mb)
Winds: from the SE (140 degrees) at 17 MPH (15 knots; 7.7 m/s)
Visibility: 3 miles ( 5 km)
Ceiling: 500 feet AGL
Clouds: broken clouds at 500 feet AGL
overcast cloud deck at 700 feet AGL
Weather: BR  (mist)

Forecast for: BIKF (KEFLAVIK (CIV/MI, IS)
Text: TAF BIKF 162253Z 1700/1800 VRB02KT 8000 -RA BR BKN007 OVC011 TX16/1715Z TN11/1703Z
Forecast period: 0000 to 0500 UTC 17 July 2019
Forecast type: FROM: standard forecast or significant change
Winds: variable direction winds at 2 MPH (2 knots; 1.0 m/s)
Visibility: 5 miles (8 km)
Ceiling: 700 feet AGL
Clouds: broken clouds at 700 feet AGL
overcast cloud deck at 1100 feet AGL
Weather: -RA BR  (light rain, mist)
Text: TEMPO 1700/1705 0800 -DZ FG OVC001
Forecast period: 0000 to 0500 UTC 17 July 2019
Forecast type: TEMPORARY: The following changes expected for less than half the time period
Visibility: 0.50 miles (0.80 km)
Ceiling: 100 feet AGL
Clouds: overcast cloud deck at 100 feet AGL
Weather: -DZ FG  (light drizzle, fog)
Text: BECMG 1705/1708 NSW SCT009 BKN018
Forecast period: 0500 to 1900 UTC 17 July 2019
Forecast type: BECOMING: Conditions expected to become as follows by 0800 UTC 17 July 2019
Winds: variable direction winds at 2 MPH (2 knots; 1.0 m/s)
Visibility: 5 miles (8 km)
Ceiling: 1800 feet AGL
Clouds: scattered clouds at 900 feet AGL
broken clouds at 1800 feet AGL
Weather: NSW  (no significant weather)
Text: PROB40
Forecast period: 1200 to 1900 UTC 17 July 2019
Forecast type: TEMPORARY: The following changes expected for less than half the time period
Visibility: missing
Ceiling: 1000 feet AGL
Clouds: broken clouds at 1000 feet AGL
Weather: SHRA  (rain showers)
Text: TEMPO 1712/1719 SHRA BKN010CB
Forecast period: 1900 UTC 17 July 2019 to 0000 UTC 18 July 2019
Forecast type: BECOMING: Conditions expected to become as follows by 2200 UTC 17 July 2019
Winds: from the N (10 degrees) at 14 MPH (12 knots; 6.2 m/s)
Visibility: 5 miles (8 km)
Ceiling: 1800 feet AGL
Clouds: scattered clouds at 900 feet AGL
broken clouds at 1800 feet AGL
Weather: NSW  (no significant weather)